Time;durP1;ratioP1;P1;durP2;ratioP2;P2;SDS_P1;SDS_P2;PMS_P1;PMS_P2;Temp;Humidity;BMP_temperature;BMP_pressure;BME280_temperature;BME280_humidity;BME280_pressure;Samples;Min_cycle;Max_cycle;Signal;HPM_P1;HPM_P2
2023/05/22 00:00:30;;;;;;;14.75;13.20;;;17.10;99.90;;;;;;2103965;28;20032;-81
2023/05/22 00:01:31;;;;;;;14.40;13.00;;;17.10;99.90;;;;;;2103962;28;20038;-79
2023/05/22 00:02:32;;;;;;;14.70;13.18;;;17.10;99.90;;;;;;2112761;28;20572;-80
2023/05/22 00:03:35;;;;;;;15.63;12.68;;;17.00;99.90;;;;;;2095501;28;20404;-81
2023/05/22 00:04:35;;;;;;;15.70;12.77;;;17.00;99.90;;;;;;2094222;28;20028;-79
2023/05/22 00:05:40;;;;;;;14.07;12.32;;;17.00;99.90;;;;;;2112897;28;20120;-80
2023/05/22 00:06:42;;;;;;;14.07;12.32;;;17.00;99.90;;;;;;2103676;28;20020;-80
2023/05/22 00:07:43;;;;;;;15.40;12.82;;;17.00;99.90;;;;;;2103656;28;20036;-80
2023/05/22 00:08:43;;;;;;;15.63;12.00;;;16.90;99.90;;;;;;2097685;28;20032;-81
2023/05/22 00:09:44;;;;;;;13.93;12.45;;;16.90;99.90;;;;;;2095703;28;20032;-81
2023/05/22 00:10:44;;;;;;;14.02;12.30;;;16.90;99.90;;;;;;2103833;28;20067;-80
2023/05/22 00:11:45;;;;;;;14.13;12.63;;;16.90;99.90;;;;;;2112842;28;20039;-80
2023/05/22 00:12:46;;;;;;;15.50;11.82;;;16.90;99.90;;;;;;2113026;28;20182;-81
2023/05/22 00:13:47;;;;;;;14.70;11.60;;;16.80;99.90;;;;;;2111034;28;20094;-81
2023/05/22 00:14:47;;;;;;;13.55;11.43;;;16.80;99.90;;;;;;2113674;28;20055;-81
2023/05/22 00:15:48;;;;;;;13.45;11.48;;;16.80;99.90;;;;;;2112815;28;20023;-81
2023/05/22 00:16:49;;;;;;;13.20;11.52;;;16.80;99.90;;;;;;2112956;28;20099;-81
2023/05/22 00:17:52;;;;;;;13.48;11.68;;;16.80;99.90;;;;;;2112743;28;20043;-81
2023/05/22 00:18:54;;;;;;;12.80;11.40;;;16.80;99.90;;;;;;2109341;28;20238;-81
2023/05/22 00:19:55;;;;;;;12.77;11.23;;;16.80;99.90;;;;;;2104695;28;20072;-81
2023/05/22 00:20:56;;;;;;;15.52;11.20;;;16.80;99.90;;;;;;2103136;28;20036;-81
2023/05/22 00:21:57;;;;;;;12.25;11.00;;;16.80;99.90;;;;;;2103960;28;20032;-81
2023/05/22 00:23:00;;;;;;;12.77;10.63;;;16.80;99.90;;;;;;2112696;28;20482;-80
2023/05/22 00:24:01;;;;;;;13.32;11.13;;;16.80;99.90;;;;;;2111245;28;20478;-81
2023/05/22 00:25:05;;;;;;;12.60;11.20;;;16.80;99.90;;;;;;2103454;28;20050;-80
2023/05/22 00:26:06;;;;;;;12.20;10.90;;;16.80;99.90;;;;;;2095852;28;20029;-81
2023/05/22 00:27:06;;;;;;;12.60;11.07;;;16.80;99.90;;;;;;2103567;28;20767;-81
2023/05/22 00:28:07;;;;;;;12.38;10.98;;;16.80;99.90;;;;;;2103516;28;20028;-80
2023/05/22 00:29:08;;;;;;;12.00;10.80;;;16.80;99.90;;;;;;2093662;28;20028;-80
2023/05/22 00:30:09;;;;;;;12.75;11.45;;;16.70;99.90;;;;;;2095238;28;20107;-79
2023/05/22 00:31:10;;;;;;;13.57;11.23;;;16.70;99.90;;;;;;2103377;28;20398;-80
2023/05/22 00:32:10;;;;;;;15.20;12.27;;;16.80;99.90;;;;;;2103518;28;20024;-80
2023/05/22 00:33:11;;;;;;;14.30;12.80;;;16.70;99.90;;;;;;2112662;28;20028;-80
2023/05/22 00:34:11;;;;;;;15.70;12.88;;;16.70;99.90;;;;;;2097436;28;20071;-80
2023/05/22 00:35:12;;;;;;;15.45;12.88;;;16.70;99.90;;;;;;2096802;28;20391;-79
2023/05/22 00:36:12;;;;;;;20.27;13.20;;;16.80;99.90;;;;;;2103674;28;20492;-80
2023/05/22 00:37:13;;;;;;;14.63;13.13;;;16.70;99.90;;;;;;2103486;28;20150;-80
2023/05/22 00:38:31;;;;;;;16.80;14.00;;;16.70;99.90;;;;;;2112656;28;20027;-82
2023/05/22 00:39:32;;;;;;;19.10;14.35;;;16.70;99.90;;;;;;2094380;28;20028;-80
2023/05/22 00:40:32;;;;;;;15.77;13.60;;;16.70;99.90;;;;;;2094494;28;20058;-80
2023/05/22 00:41:33;;;;;;;17.75;13.70;;;16.60;99.90;;;;;;2095321;28;20111;-80
2023/05/22 00:42:34;;;;;;;14.75;13.25;;;16.60;99.90;;;;;;2095061;28;20025;-80
2023/05/22 00:43:38;;;;;;;14.82;13.30;;;16.60;99.90;;;;;;2094412;28;20029;-80
2023/05/22 00:44:38;;;;;;;15.65;13.63;;;16.60;99.90;;;;;;2093903;28;20032;-80
2023/05/22 00:45:39;;;;;;;15.63;13.93;;;16.50;99.90;;;;;;2094574;28;20067;-81
2023/05/22 00:46:40;;;;;;;17.77;14.02;;;16.50;99.90;;;;;;2078814;28;20394;-81
2023/05/22 00:47:40;;;;;;;18.27;14.27;;;16.50;99.90;;;;;;2094379;28;20025;-81
2023/05/22 00:48:41;;;;;;;16.88;13.90;;;16.50;99.90;;;;;;2093156;28;20052;-80
2023/05/22 00:49:42;;;;;;;19.38;14.02;;;16.50;99.90;;;;;;2095245;28;20036;-81
2023/05/22 00:50:43;;;;;;;15.25;13.65;;;16.40;99.90;;;;;;2103655;28;20051;-81
2023/05/22 00:51:44;;;;;;;15.05;13.18;;;16.40;99.90;;;;;;2112463;28;20027;-81
2023/05/22 00:52:45;;;;;;;14.90;13.30;;;16.40;99.90;;;;;;2103221;28;20032;-81
2023/05/22 00:53:47;;;;;;;14.95;13.32;;;16.40;99.90;;;;;;2093235;28;20526;-80
2023/05/22 00:54:49;;;;;;;16.05;12.82;;;16.40;99.90;;;;;;2103905;28;20046;-80
2023/05/22 00:55:52;;;;;;;15.57;13.48;;;16.30;99.90;;;;;;2112643;28;20054;-80
2023/05/22 00:56:53;;;;;;;16.52;13.65;;;16.30;99.90;;;;;;2094077;28;20135;-81
2023/05/22 00:57:54;;;;;;;14.70;13.10;;;16.30;99.90;;;;;;2094800;28;20032;-73
2023/05/22 00:58:55;;;;;;;15.10;13.38;;;16.30;99.90;;;;;;2092961;28;20044;-73
2023/05/22 00:59:55;;;;;;;14.68;13.00;;;16.30;99.90;;;;;;2103627;28;20273;-75
2023/05/22 01:00:56;;;;;;;14.40;12.90;;;16.30;99.90;;;;;;2112047;28;20035;-74
2023/05/22 01:01:57;;;;;;;15.65;12.93;;;16.30;99.90;;;;;;2103471;28;20505;-75
2023/05/22 01:02:59;;;;;;;15.57;13.75;;;16.30;99.90;;;;;;2094881;28;20036;-75
2023/05/22 01:04:00;;;;;;;14.85;13.30;;;16.20;99.90;;;;;;2101715;28;20052;-75
2023/05/22 01:05:03;;;;;;;15.27;13.60;;;16.30;99.90;;;;;;2112432;28;20096;-75
2023/05/22 01:06:03;;;;;;;16.45;13.55;;;16.20;99.90;;;;;;2104128;28;20039;-75
2023/05/22 01:07:04;;;;;;;16.52;14.13;;;16.20;99.90;;;;;;2111488;28;20059;-74
2023/05/22 01:08:07;;;;;;;18.63;15.15;;;16.20;99.90;;;;;;2110468;28;20523;-75
2023/05/22 01:09:08;;;;;;;19.17;15.20;;;16.20;99.90;;;;;;2110575;28;20024;-75
2023/05/22 01:10:08;;;;;;;16.10;14.40;;;16.20;99.90;;;;;;2103342;28;20064;-75
2023/05/22 01:11:21;;;;;;;16.95;14.70;;;16.20;99.90;;;;;;2094819;28;20078;-75
2023/05/22 01:12:54;;;;;;;15.98;14.02;;;16.10;99.90;;;;;;2088513;28;20858;-75
2023/05/22 01:14:00;;;;;;;16.27;14.43;;;16.10;99.90;;;;;;2062532;28;20545;-75
2023/05/22 01:15:25;;;;;;;16.00;14.07;;;16.10;99.90;;;;;;2098136;28;20017;-75
2023/05/22 01:16:49;;;;;;;16.00;14.30;;;16.10;99.90;;;;;;2095462;28;20531;-75
2023/05/22 01:18:00;;;;;;;17.50;14.55;;;16.10;99.90;;;;;;2090006;28;20544;-75
2023/05/22 01:19:09;;;;;;;18.77;14.05;;;16.00;99.90;;;;;;2094829;28;20790;-75
2023/05/22 01:20:30;;;;;;;16.58;13.85;;;16.00;99.90;;;;;;2105178;28;20059;-75
2023/05/22 01:21:57;;;;;;;15.57;13.80;;;16.00;99.90;;;;;;2095002;28;20040;-74
2023/05/22 01:23:56;;;;;;;16.30;14.23;;;16.00;99.90;;;;;;2090166;28;20041;-74
2023/05/22 01:25:19;;;;;;;16.50;14.43;;;16.00;99.90;;;;;;2103702;28;20127;-74
2023/05/22 01:26:43;;;;;;;17.08;14.70;;;15.90;99.90;;;;;;2095283;28;20024;-75
2023/05/22 01:28:18;;;;;;;17.38;14.38;;;15.90;99.90;;;;;;2104628;28;20032;-75
2023/05/22 01:29:29;;;;;;;16.48;13.63;;;15.90;99.90;;;;;;2098541;28;20040;-74
2023/05/22 01:31:14;;;;;;;16.55;14.73;;;15.90;99.90;;;;;;2095858;28;20029;-74
2023/05/22 01:32:20;;;;;;;16.60;14.13;;;15.90;99.90;;;;;;2095133;28;20032;-74
2023/05/22 01:33:24;;;;;;;15.20;13.60;;;15.80;99.90;;;;;;2103963;28;20146;-74
2023/05/22 01:34:27;;;;;;;15.35;13.63;;;15.90;99.90;;;;;;2094256;28;20021;-74
2023/05/22 01:35:29;;;;;;;16.77;13.15;;;15.90;99.90;;;;;;2096101;28;20410;-74
2023/05/22 01:36:35;;;;;;;15.65;13.98;;;15.90;99.90;;;;;;2103673;28;20071;-74
2023/05/22 01:37:37;;;;;;;15.50;13.23;;;15.90;99.90;;;;;;2102046;28;20103;-74
2023/05/22 01:38:40;;;;;;;16.00;13.57;;;15.90;99.90;;;;;;2110960;28;20032;-74
2023/05/22 01:39:42;;;;;;;15.27;13.27;;;15.90;99.90;;;;;;2111484;28;20028;-74
2023/05/22 01:40:44;;;;;;;14.93;13.38;;;15.90;99.90;;;;;;2110324;28;20039;-74
2023/05/22 01:41:45;;;;;;;15.10;13.50;;;15.90;99.90;;;;;;2101088;28;20032;-74
2023/05/22 01:42:46;;;;;;;15.63;13.25;;;15.90;99.90;;;;;;2095074;28;20025;-74
2023/05/22 01:43:47;;;;;;;14.35;12.65;;;15.90;99.90;;;;;;2110168;28;20008;-74
2023/05/22 01:44:48;;;;;;;15.65;12.85;;;15.90;99.90;;;;;;2101781;28;20061;-75
2023/05/22 01:45:50;;;;;;;16.10;13.05;;;15.80;99.90;;;;;;2103110;28;20028;-74
2023/05/22 01:46:51;;;;;;;14.23;12.40;;;15.80;99.90;;;;;;2115008;28;20433;-75
2023/05/22 01:47:51;;;;;;;14.00;12.40;;;15.80;99.90;;;;;;2103479;28;20032;-75
2023/05/22 01:48:52;;;;;;;14.13;12.65;;;15.80;99.90;;;;;;2094752;28;20035;-74
2023/05/22 01:49:53;;;;;;;15.20;13.15;;;15.80;99.90;;;;;;2102987;28;20036;-74
2023/05/22 01:50:54;;;;;;;15.85;13.25;;;15.80;99.90;;;;;;2095053;28;20063;-74
2023/05/22 01:52:01;;;;;;;14.70;13.07;;;15.80;99.90;;;;;;2092616;28;20086;-74
2023/05/22 01:53:17;;;;;;;14.52;12.35;;;15.70;99.90;;;;;;2095883;28;20021;-75
2023/05/22 01:54:22;;;;;;;17.95;12.65;;;15.70;99.90;;;;;;2103841;28;20036;-75
2023/05/22 01:55:46;;;;;;;15.35;12.70;;;15.80;99.90;;;;;;2103739;28;20036;-74
2023/05/22 01:57:04;;;;;;;14.07;12.43;;;15.80;99.90;;;;;;2099533;28;20035;-75
2023/05/22 01:58:30;;;;;;;14.32;12.23;;;15.70;99.90;;;;;;2097013;28;20043;-75
2023/05/22 01:59:44;;;;;;;15.10;12.43;;;15.70;99.90;;;;;;2098589;28;20058;-75
2023/05/22 02:00:46;;;;;;;16.13;13.02;;;15.70;99.90;;;;;;2096978;28;20131;-74
2023/05/22 02:01:50;;;;;;;15.57;12.60;;;15.70;99.90;;;;;;2096772;28;20123;-75
2023/05/22 02:03:05;;;;;;;14.07;12.40;;;15.70;99.90;;;;;;2103327;28;20059;-75
2023/05/22 02:04:08;;;;;;;13.77;12.30;;;15.70;99.90;;;;;;2104073;28;20242;-75
2023/05/22 02:05:11;;;;;;;15.40;12.35;;;15.70;99.90;;;;;;2094491;28;20528;-75
2023/05/22 02:06:13;;;;;;;15.80;12.43;;;15.70;99.90;;;;;;2094537;28;20487;-74
2023/05/22 02:07:15;;;;;;;16.40;12.57;;;15.70;99.90;;;;;;2092515;28;20024;-74
2023/05/22 02:08:16;;;;;;;14.07;12.57;;;15.70;99.90;;;;;;2087970;28;20123;-75
2023/05/22 02:09:20;;;;;;;16.70;12.70;;;15.70;99.90;;;;;;2096237;28;20025;-75
2023/05/22 02:10:21;;;;;;;14.55;12.23;;;15.70;99.90;;;;;;2104740;28;20035;-74
2023/05/22 02:11:25;;;;;;;14.00;12.32;;;15.70;99.90;;;;;;2103324;28;20039;-75
2023/05/22 02:12:26;;;;;;;14.73;12.45;;;15.70;99.90;;;;;;2109874;28;20020;-75
2023/05/22 02:13:27;;;;;;;18.27;14.10;;;15.70;99.90;;;;;;2096149;28;20024;-75
2023/05/22 02:14:29;;;;;;;19.13;15.20;;;15.70;99.90;;;;;;2096352;28;20028;-75
2023/05/22 02:15:29;;;;;;;17.55;14.07;;;15.70;99.90;;;;;;2088636;28;20025;-75
2023/05/22 02:16:32;;;;;;;17.38;14.77;;;15.60;99.90;;;;;;2094365;28;20032;-74
2023/05/22 02:17:44;;;;;;;15.68;13.98;;;15.60;99.90;;;;;;2104497;28;20023;-75
2023/05/22 02:18:45;;;;;;;15.25;13.65;;;15.60;99.90;;;;;;2104895;28;20274;-75
2023/05/22 02:19:46;;;;;;;18.25;13.32;;;15.60;99.90;;;;;;2096145;28;20046;-75
2023/05/22 02:20:47;;;;;;;14.90;13.30;;;15.50;99.90;;;;;;2096184;28;20050;-74
2023/05/22 02:21:47;;;;;;;17.45;14.18;;;15.50;99.90;;;;;;2102764;28;20032;-75
2023/05/22 02:22:48;;;;;;;15.70;13.23;;;15.50;99.90;;;;;;2096608;28;20039;-75
2023/05/22 02:23:49;;;;;;;15.93;13.80;;;15.50;99.90;;;;;;2096151;28;20494;-74
2023/05/22 02:24:49;;;;;;;15.25;13.65;;;15.50;99.90;;;;;;2105428;28;20069;-75
2023/05/22 02:25:50;;;;;;;14.95;13.27;;;15.50;99.90;;;;;;2103819;28;20454;-75
2023/05/22 02:26:51;;;;;;;15.75;13.38;;;15.40;99.90;;;;;;2098816;28;20107;-75
2023/05/22 02:27:52;;;;;;;14.50;12.95;;;15.40;99.90;;;;;;2097940;28;20032;-75
2023/05/22 02:28:54;;;;;;;17.20;13.55;;;15.40;99.90;;;;;;2096319;28;20086;-75
2023/05/22 02:29:55;;;;;;;16.67;13.90;;;15.40;99.90;;;;;;2104292;28;20134;-75
2023/05/22 02:30:55;;;;;;;16.50;13.40;;;15.40;99.90;;;;;;2104433;28;20064;-74
2023/05/22 02:31:56;;;;;;;18.92;13.07;;;15.40;99.90;;;;;;2102917;28;20705;-75
2023/05/22 02:32:58;;;;;;;14.05;12.65;;;15.40;99.90;;;;;;2104396;28;20028;-75
2023/05/22 02:33:59;;;;;;;14.55;12.93;;;15.40;99.90;;;;;;2104226;28;20032;-75
2023/05/22 02:35:00;;;;;;;16.33;13.20;;;15.40;99.90;;;;;;2105091;28;20028;-74
2023/05/22 02:36:00;;;;;;;14.63;12.80;;;15.40;99.90;;;;;;2104628;28;20032;-75
2023/05/22 02:37:04;;;;;;;17.15;13.60;;;15.40;99.90;;;;;;2104568;28;20523;-75
2023/05/22 02:38:05;;;;;;;16.63;13.32;;;15.30;99.90;;;;;;2112449;28;20024;-75
2023/05/22 02:39:06;;;;;;;18.17;12.90;;;15.30;99.90;;;;;;2096575;28;20032;-75
2023/05/22 02:40:09;;;;;;;16.13;13.13;;;15.30;99.90;;;;;;2103669;28;20119;-74
2023/05/22 02:41:09;;;;;;;15.23;13.25;;;15.30;99.90;;;;;;2105071;28;20162;-75
2023/05/22 02:42:10;;;;;;;15.73;13.80;;;15.30;99.90;;;;;;2094785;28;20024;-75
2023/05/22 02:43:12;;;;;;;14.55;13.05;;;15.30;99.90;;;;;;2096509;28;20044;-75
2023/05/22 02:44:12;;;;;;;15.02;13.38;;;15.30;99.90;;;;;;2110503;28;20637;-75
2023/05/22 02:45:13;;;;;;;15.70;13.20;;;15.30;99.90;;;;;;2103618;28;20034;-75
2023/05/22 02:46:15;;;;;;;15.00;13.32;;;15.30;99.90;;;;;;2104993;28;20597;-75
2023/05/22 02:47:16;;;;;;;17.35;13.73;;;15.20;99.90;;;;;;2094313;28;20023;-75
2023/05/22 02:48:16;;;;;;;14.93;13.30;;;15.20;99.90;;;;;;2095143;28;20028;-75
2023/05/22 02:49:17;;;;;;;15.50;13.30;;;15.20;99.90;;;;;;2104351;28;20036;-75
2023/05/22 02:50:17;;;;;;;15.50;13.60;;;15.20;99.90;;;;;;2098861;28;20534;-75
2023/05/22 02:51:18;;;;;;;15.70;13.65;;;15.20;99.90;;;;;;2103371;28;20044;-75
2023/05/22 02:52:19;;;;;;;17.07;13.23;;;15.20;99.90;;;;;;2113366;28;20023;-75
2023/05/22 02:53:20;;;;;;;15.85;13.13;;;15.20;99.90;;;;;;2112215;28;20240;-74
2023/05/22 02:54:21;;;;;;;15.88;13.50;;;15.20;99.90;;;;;;2104922;28;20040;-75
2023/05/22 02:55:21;;;;;;;16.45;13.57;;;15.20;99.90;;;;;;2104489;28;20027;-75
2023/05/22 02:56:22;;;;;;;16.17;13.85;;;15.20;99.90;;;;;;2107631;28;20431;-75
2023/05/22 02:57:23;;;;;;;18.00;14.90;;;15.20;99.90;;;;;;2110602;28;20059;-75
2023/05/22 02:58:24;;;;;;;18.13;15.32;;;15.20;99.90;;;;;;2113568;27;20020;-75
2023/05/22 02:59:25;;;;;;;17.73;15.63;;;15.20;99.90;;;;;;2118193;27;20032;-75
2023/05/22 03:00:26;;;;;;;19.35;15.57;;;15.20;99.90;;;;;;2111806;28;20484;-75
2023/05/22 03:01:29;;;;;;;18.42;15.00;;;15.20;99.90;;;;;;2093394;28;20412;-75
2023/05/22 03:02:31;;;;;;;16.17;14.15;;;15.20;99.90;;;;;;2096348;28;20047;-74
2023/05/22 03:03:32;;;;;;;15.85;13.77;;;15.20;99.90;;;;;;2120236;27;20497;-74
2023/05/22 03:04:37;;;;;;;17.63;14.82;;;15.10;99.90;;;;;;2113241;27;20573;-74
2023/05/22 03:05:38;;;;;;;18.88;15.75;;;15.10;99.90;;;;;;2130442;27;20027;-74
2023/05/22 03:06:45;;;;;;;18.23;15.13;;;15.10;99.90;;;;;;2102636;28;20852;-74
2023/05/22 03:07:45;;;;;;;16.48;14.70;;;15.10;99.90;;;;;;2105082;27;20118;-75
2023/05/22 03:08:47;;;;;;;17.02;15.23;;;15.10;99.90;;;;;;2100367;28;20404;-75
2023/05/22 03:09:48;;;;;;;16.80;15.00;;;15.10;99.90;;;;;;2112107;28;20027;-74
2023/05/22 03:10:48;;;;;;;16.90;14.88;;;15.10;99.90;;;;;;2120876;27;20031;-74
2023/05/22 03:11:49;;;;;;;17.80;14.90;;;15.10;99.90;;;;;;2115786;27;20093;-75
2023/05/22 03:12:53;;;;;;;17.73;14.63;;;15.10;99.90;;;;;;2115195;27;20470;-74
2023/05/22 03:13:54;;;;;;;17.58;14.93;;;15.10;99.90;;;;;;2120954;27;20052;-74
2023/05/22 03:14:54;;;;;;;17.25;14.32;;;15.10;99.90;;;;;;2105254;28;20053;-74
2023/05/22 03:15:55;;;;;;;18.35;14.70;;;15.10;99.90;;;;;;2103665;28;20081;-74
2023/05/22 03:16:57;;;;;;;17.23;15.25;;;15.10;99.90;;;;;;2088884;28;20025;-74
2023/05/22 03:17:58;;;;;;;16.50;14.70;;;15.10;99.90;;;;;;2095940;28;20032;-75
2023/05/22 03:19:12;;;;;;;17.88;15.25;;;15.10;99.90;;;;;;2111323;28;20027;-74
2023/05/22 03:20:16;;;;;;;18.33;14.75;;;15.10;99.90;;;;;;2096826;28;20071;-74
2023/05/22 03:21:17;;;;;;;18.30;14.98;;;15.10;99.90;;;;;;2104943;27;20024;-75
2023/05/22 03:22:17;;;;;;;21.20;14.90;;;15.10;99.90;;;;;;2102267;28;20145;-75
2023/05/22 03:23:21;;;;;;;16.65;13.75;;;15.10;99.90;;;;;;2105107;28;20369;-75
2023/05/22 03:24:22;;;;;;;19.08;15.55;;;15.10;99.90;;;;;;2120783;27;20035;-75
2023/05/22 03:25:22;;;;;;;18.42;14.98;;;15.10;99.90;;;;;;2096440;28;20854;-75
2023/05/22 03:26:23;;;;;;;16.92;14.98;;;15.10;99.90;;;;;;2095221;28;20598;-75
2023/05/22 03:27:23;;;;;;;15.80;14.13;;;15.10;99.90;;;;;;2112707;28;20019;-76
2023/05/22 03:28:24;;;;;;;17.55;15.00;;;15.10;99.90;;;;;;2129729;27;20023;-75
2023/05/22 03:29:25;;;;;;;16.25;14.05;;;15.20;99.90;;;;;;2113251;27;20682;-75
2023/05/22 03:30:26;;;;;;;15.82;14.15;;;15.20;99.90;;;;;;2104142;28;20481;-75
2023/05/22 03:31:42;;;;;;;18.05;14.57;;;15.20;99.90;;;;;;2096449;28;20020;-75
2023/05/22 03:32:45;;;;;;;16.45;14.45;;;15.20;99.90;;;;;;2096237;28;20031;-75
2023/05/22 03:33:46;;;;;;;17.92;14.57;;;15.20;99.90;;;;;;2111725;28;20028;-75
2023/05/22 03:34:46;;;;;;;17.02;14.55;;;15.20;99.90;;;;;;2121119;27;20444;-75
2023/05/22 03:35:47;;;;;;;15.75;14.05;;;15.30;99.90;;;;;;2103777;28;20044;-75
2023/05/22 03:36:47;;;;;;;14.98;13.48;;;15.30;99.90;;;;;;2102785;28;20032;-75
2023/05/22 03:37:50;;;;;;;17.77;14.32;;;15.30;99.90;;;;;;2104180;28;20020;-74
2023/05/22 03:38:52;;;;;;;16.65;14.18;;;15.30;99.90;;;;;;2103712;27;20575;-74
2023/05/22 03:39:52;;;;;;;17.38;14.05;;;15.30;99.90;;;;;;2104416;28;20040;-75
2023/05/22 03:40:59;;;;;;;17.13;13.90;;;15.30;99.90;;;;;;2088170;28;20079;-74
2023/05/22 03:42:00;;;;;;;17.60;14.15;;;15.40;99.90;;;;;;2104538;28;20028;-75
2023/05/22 03:43:01;;;;;;;17.00;14.18;;;15.40;99.90;;;;;;2120307;27;20019;-75
2023/05/22 03:44:02;;;;;;;16.63;13.82;;;15.40;99.90;;;;;;2103943;28;20020;-74
2023/05/22 03:45:03;;;;;;;15.30;13.77;;;15.40;99.90;;;;;;2103398;28;20020;-74
2023/05/22 03:46:05;;;;;;;17.88;14.32;;;15.50;99.90;;;;;;2104444;28;20026;-75
2023/05/22 03:47:05;;;;;;;15.95;13.55;;;15.50;99.90;;;;;;2112061;27;20038;-74
2023/05/22 03:48:06;;;;;;;17.98;14.43;;;15.50;99.90;;;;;;2129414;27;20489;-74
2023/05/22 03:49:07;;;;;;;16.50;13.68;;;15.60;99.90;;;;;;2119784;27;20025;-74
2023/05/22 03:50:08;;;;;;;15.60;14.00;;;15.60;99.90;;;;;;2111702;28;20098;-75
2023/05/22 03:51:08;;;;;;;17.33;13.40;;;15.60;99.90;;;;;;2104611;28;20028;-74
2023/05/22 03:52:09;;;;;;;14.70;12.98;;;15.60;99.90;;;;;;2111095;27;20369;-74
2023/05/22 03:53:11;;;;;;;16.13;14.00;;;15.60;99.90;;;;;;2129322;27;20401;-74
2023/05/22 03:54:11;;;;;;;15.93;14.15;;;15.70;99.90;;;;;;2122017;27;20035;-74
2023/05/22 03:55:12;;;;;;;16.27;13.73;;;15.70;99.90;;;;;;2129492;27;20037;-74
2023/05/22 03:56:13;;;;;;;15.13;13.32;;;15.70;99.90;;;;;;2119274;27;20551;-74
2023/05/22 03:57:15;;;;;;;15.65;13.20;;;15.80;99.90;;;;;;2101731;28;20482;-74
2023/05/22 03:58:15;;;;;;;17.42;13.48;;;15.80;99.90;;;;;;2111042;28;20032;-76
2023/05/22 03:59:16;;;;;;;16.30;13.13;;;15.90;99.90;;;;;;2095455;28;20511;-75
2023/05/22 04:00:18;;;;;;;16.90;13.75;;;15.90;99.90;;;;;;2087811;28;20032;-75
2023/05/22 04:01:19;;;;;;;20.27;14.32;;;15.90;99.90;;;;;;2094272;28;20040;-75
2023/05/22 04:02:20;;;;;;;15.43;13.65;;;15.90;99.90;;;;;;2096667;28;20435;-75
2023/05/22 04:03:21;;;;;;;16.50;13.80;;;16.00;99.90;;;;;;2120001;27;20126;-75
2023/05/22 04:04:21;;;;;;;15.43;13.75;;;16.00;99.90;;;;;;2122075;27;20015;-75
2023/05/22 04:05:22;;;;;;;17.90;14.05;;;16.10;99.90;;;;;;2119921;27;20472;-76
2023/05/22 04:06:24;;;;;;;15.95;13.95;;;16.10;99.90;;;;;;2103021;28;20050;-75
2023/05/22 04:07:24;;;;;;;15.93;13.90;;;16.20;99.90;;;;;;2109376;28;20031;-75
2023/05/22 04:08:26;;;;;;;15.80;13.60;;;16.20;99.90;;;;;;2110131;28;20040;-75
2023/05/22 04:09:30;;;;;;;17.08;14.00;;;16.30;99.90;;;;;;2112919;27;20028;-75
2023/05/22 04:10:31;;;;;;;18.63;13.68;;;16.50;99.90;;;;;;2120500;27;20031;-74
2023/05/22 04:11:32;;;;;;;16.17;13.32;;;16.60;99.90;;;;;;2104340;28;20403;-74
2023/05/22 04:12:33;;;;;;;17.20;13.38;;;16.90;99.90;;;;;;2109251;28;20107;-73
2023/05/22 04:13:34;;;;;;;16.83;13.73;;;17.10;99.90;;;;;;2120065;27;20066;-75
2023/05/22 04:14:34;;;;;;;16.70;13.02;;;17.40;99.90;;;;;;2125274;27;20091;-75
2023/05/22 04:15:35;;;;;;;17.75;13.50;;;17.60;99.90;;;;;;2129284;27;20027;-75
2023/05/22 04:16:35;;;;;;;16.45;12.85;;;17.90;99.90;;;;;;2113844;27;20034;-75
2023/05/22 04:17:39;;;;;;;14.75;12.82;;;18.10;99.90;;;;;;2103983;28;20451;-75
2023/05/22 04:18:39;;;;;;;15.32;13.07;;;18.30;99.90;;;;;;2113596;27;20027;-76
2023/05/22 04:19:40;;;;;;;14.65;13.02;;;18.60;99.90;;;;;;2120011;27;20055;-75
2023/05/22 04:20:41;;;;;;;16.50;12.57;;;18.70;99.90;;;;;;2112637;28;20042;-75
2023/05/22 04:21:42;;;;;;;15.05;12.65;;;18.90;99.90;;;;;;2113449;27;20027;-76
2023/05/22 04:22:44;;;;;;;13.75;12.30;;;19.10;99.90;;;;;;2129818;27;20023;-75
2023/05/22 04:23:45;;;;;;;13.80;12.20;;;19.20;99.90;;;;;;2104371;28;20032;-76
2023/05/22 04:24:47;;;;;;;13.48;12.07;;;19.40;99.90;;;;;;2111270;28;20089;-76
2023/05/22 04:25:49;;;;;;;18.27;12.15;;;19.50;99.90;;;;;;2112295;28;20046;-76
2023/05/22 04:26:49;;;;;;;15.05;12.52;;;19.70;99.90;;;;;;2102866;28;20028;-75
2023/05/22 04:27:50;;;;;;;14.40;11.73;;;19.70;99.90;;;;;;2113458;27;20175;-75
2023/05/22 04:28:50;;;;;;;14.05;11.73;;;19.80;99.90;;;;;;2121208;27;20050;-75
2023/05/22 04:29:51;;;;;;;15.80;11.80;;;19.90;99.90;;;;;;2121990;27;20035;-76
2023/05/22 04:30:53;;;;;;;14.02;11.90;;;20.00;99.90;;;;;;2111912;28;20031;-76
2023/05/22 04:31:56;;;;;;;13.55;11.73;;;20.10;99.90;;;;;;2113338;27;20015;-76
2023/05/22 04:32:58;;;;;;;13.98;11.52;;;20.10;99.90;;;;;;2120232;27;20082;-76
2023/05/22 04:33:59;;;;;;;14.15;11.25;;;20.10;99.90;;;;;;2104113;28;20114;-74
2023/05/22 04:35:00;;;;;;;15.38;12.07;;;20.10;99.90;;;;;;2111167;28;20024;-76
2023/05/22 04:36:01;;;;;;;16.40;12.40;;;20.00;99.90;;;;;;2095639;28;20090;-75
2023/05/22 04:37:03;;;;;;;17.30;12.35;;;19.90;99.90;;;;;;2102777;28;20035;-74
2023/05/22 04:38:05;;;;;;;14.13;11.30;;;19.90;99.90;;;;;;2112239;28;20471;-75
2023/05/22 04:39:05;;;;;;;12.55;10.88;;;19.90;99.90;;;;;;2120117;27;20539;-74
2023/05/22 04:40:07;;;;;;;13.52;11.40;;;20.00;99.90;;;;;;2112490;27;20098;-75
2023/05/22 04:41:09;;;;;;;13.85;11.20;;;20.00;99.90;;;;;;2119120;27;20035;-75
2023/05/22 04:42:13;;;;;;;15.27;11.40;;;20.20;99.90;;;;;;2110881;27;20027;-74
2023/05/22 04:43:17;;;;;;;12.95;10.75;;;20.30;99.90;;;;;;2112773;28;20023;-77
2023/05/22 04:44:21;;;;;;;13.65;10.77;;;20.40;99.90;;;;;;2125183;27;20042;-76
2023/05/22 04:45:24;;;;;;;14.70;11.48;;;20.50;99.90;;;;;;2129483;27;20077;-75
2023/05/22 04:46:24;;;;;;;14.93;11.35;;;20.60;99.90;;;;;;2119485;27;20042;-75
2023/05/22 04:47:27;;;;;;;14.35;11.25;;;20.70;99.90;;;;;;2103684;28;20035;-75
2023/05/22 04:48:29;;;;;;;12.52;10.60;;;20.70;99.90;;;;;;2103740;27;20526;-75
2023/05/22 04:49:30;;;;;;;11.05;9.88;;;20.70;99.90;;;;;;2104191;28;20045;-74
2023/05/22 04:50:31;;;;;;;14.75;10.55;;;20.80;99.90;;;;;;2103281;28;20035;-74
2023/05/22 04:51:33;;;;;;;12.57;10.70;;;20.90;99.90;;;;;;2104722;28;20099;-75
2023/05/22 04:52:34;;;;;;;14.68;10.65;;;21.00;99.90;;;;;;2111888;28;20023;-74
2023/05/22 04:53:37;;;;;;;13.85;10.48;;;21.00;99.90;;;;;;2119816;27;20131;-75
2023/05/22 04:54:38;;;;;;;15.77;11.00;;;21.10;99.90;;;;;;2112164;27;20100;-74
2023/05/22 04:55:39;;;;;;;14.57;10.93;;;21.20;99.90;;;;;;2111316;28;20577;-75
2023/05/22 04:56:39;;;;;;;13.70;10.82;;;21.30;99.90;;;;;;2113201;27;20039;-75
2023/05/22 04:57:43;;;;;;;13.70;10.48;;;21.30;99.90;;;;;;2111792;28;20024;-75
2023/05/22 04:58:43;;;;;;;13.20;10.50;;;21.30;99.90;;;;;;2111680;28;20047;-76
2023/05/22 04:59:44;;;;;;;12.60;10.45;;;21.20;99.90;;;;;;2103963;28;20039;-75
2023/05/22 05:00:45;;;;;;;12.35;10.68;;;21.30;99.90;;;;;;2119490;27;20023;-76
2023/05/22 05:01:46;;;;;;;13.63;10.85;;;21.40;99.90;;;;;;2106669;28;20028;-76
2023/05/22 05:02:47;;;;;;;13.60;10.88;;;21.30;99.90;;;;;;2104032;28;20471;-75
2023/05/22 05:03:48;;;;;;;16.55;11.27;;;21.30;99.90;;;;;;2110485;28;20030;-74
2023/05/22 05:04:48;;;;;;;20.73;11.23;;;21.20;99.90;;;;;;2095044;28;20017;-76
2023/05/22 05:05:50;;;;;;;16.30;11.38;;;21.00;99.90;;;;;;2095221;28;20511;-75
2023/05/22 05:06:52;;;;;;;13.50;11.80;;;20.90;99.90;;;;;;2083453;28;20095;-76
2023/05/22 05:07:53;;;;;;;14.32;11.15;;;20.70;99.90;;;;;;2092070;28;20422;-75
2023/05/22 05:08:54;;;;;;;13.90;11.35;;;20.50;99.90;;;;;;2087354;28;20527;-75
2023/05/22 05:09:55;;;;;;;12.93;10.85;;;20.60;99.90;;;;;;2086155;28;20025;-75
2023/05/22 05:10:55;;;;;;;16.35;11.93;;;20.60;99.90;;;;;;2103436;28;20094;-75
2023/05/22 05:11:57;;;;;;;15.80;11.95;;;20.60;99.90;;;;;;2093763;28;20028;-77
2023/05/22 05:12:57;;;;;;;16.98;12.13;;;20.60;99.90;;;;;;2097160;28;20044;-76
2023/05/22 05:13:58;;;;;;;18.83;12.20;;;20.50;99.90;;;;;;2103424;28;20031;-75
2023/05/22 05:14:59;;;;;;;14.27;11.27;;;20.50;99.90;;;;;;2103180;28;20081;-76
2023/05/22 05:15:59;;;;;;;14.85;11.55;;;20.50;99.90;;;;;;2103371;28;20035;-77
2023/05/22 05:17:01;;;;;;;13.90;11.07;;;20.60;99.90;;;;;;2096286;28;20537;-76
2023/05/22 05:18:01;;;;;;;17.15;11.20;;;20.60;99.90;;;;;;2110048;28;20035;-76
2023/05/22 05:19:02;;;;;;;13.30;11.30;;;20.50;99.90;;;;;;2112269;28;20030;-75
2023/05/22 05:20:05;;;;;;;14.23;11.52;;;20.60;99.90;;;;;;2094807;28;20085;-76